x

North Michigan- Halfway Between North Manitou And Washington Islands. (45002) Wave Buoy

2:50am - Sun 30th Apr 2017 All times are CDT. -5 hours from GMT.

  • Sig Wave height 3.0ft
  • Swell Direction
  • Peak Period 4s
  • Average Period 4s
  • Wind
    16mph, 20mph gusts
  • Sea Temp 37°f
  • Air Temp 38°f
  • Sea Pressure 1024mb
  • North Michigan- Halfway Between North Manitou And Washington Islands.
  • North Michigan- Halfway Between North Manitou And Washington Islands.

More Historic Weather Station data

Upgrade to MSW Pro to gain access to the past 30 days of data for over 8000 Wavebouys and Weather Stations around the globe.

Join Pro

Comparision Forecast

View Surf forecast
   
Sun 04/30 2:50am 3ft 4s 4s 16 20 mph 1024mb 37f 38f
1:50am 3ft 4s 4s 20 22 mph 1022.9mb 37f 38f
12:50am 3ft 4s 4s 22 25 mph 1023.3mb 37f 38f
Sat 04/29 11:50pm 2.5ft 4s 3s 22 25 mph 1024.9mb 37f 38f
10:50pm 1.6ft 3s 3s 18 20 mph 1026.1mb 37f 39f
9:50pm 1.3ft 3s 3s 13 16 mph 1026.9mb 37f 38f
7:50pm 1ft 3s 3s 13 16 mph 1026.7mb 37f 40f
6:50pm 0.7ft  -  3s 13
mph
1025.8mb 37f 41f
5:50pm 0.7ft  -  3s 4 7 mph 1026.8mb 37f 39f
4:50pm 0.7ft  -  3s  -  2 mph 1027.3mb 38f 38f
3:50pm 0.7ft  -  3s 2 4 mph 1027.4mb 38f 38f
2:50pm 0.7ft  -  3s 4
mph
1027.9mb 38f 39f
1:50pm 1ft 3s 3s  -  2 mph 1027.8mb 37f 38f
12:50pm 1ft 3s 3s 2
mph
1027.8mb 38f 37f
11:50am 1.3ft 3s 3s 7
mph
1027.9mb 37f 37f
10:50am 1.3ft 3s 3s 9 11 mph 1027.2mb 37f 37f
9:50am 1.3ft 3s 3s 13 16 mph 1027.2mb 37f 37f
8:50am 1.3ft 3s 3s 13 16 mph 1026.7mb 37f 37f
7:50am 1.3ft 4s 3s 16 20 mph 1026.5mb 37f 37f
6:50am 1.3ft 4s 3s 13
mph
1025.4mb 37f 37f
5:50am 1.6ft 4s 3s 7 9 mph 1025.9mb 37f 36f
4:50am 2.5ft 4s 3s 13 16 mph 1022.8mb 37f 36f
3:50am 2.5ft 4s 3s 13 18 mph 1021.9mb 37f 37f
2:50am 2ft 3s 3s 18 20 mph 1021.3mb 37f 37f
1:50am 1ft 5s 4s 20 22 mph 1020.7mb 37f 37f
12:50am 1ft 4s 4s 2
mph
1020.3mb 37f 38f
Fri 04/28 11:50pm 1.3ft 5s 4s 2 4 mph 1020.1mb 37f 38f
10:50pm 1.3ft 4s 4s 4 7 mph 1019.8mb 37f 38f
9:50pm 1.6ft 5s 4s 9 11 mph 1018.9mb 37f 38f
7:50pm 2ft 4s 4s 2
mph
1016.3mb 37f 38f
6:50pm 2ft 5s 4s 4 7 mph 1015.7mb 37f 38f
4:50pm 2.5ft 6s 4s 13 16 mph 1015.1mb 37f 38f
3:50pm 2.5ft 5s 4s 11 16 mph 1015.2mb 37f 38f
2:50pm 2.5ft 6s 4s 11 16 mph 1015.4mb 37f 38f
1:50pm 3ft 5s 4s 11 13 mph 1014.8mb 37f 38f
12:50pm 3ft 5s 4s 16 18 mph 1014.6mb 37f 37f
11:50am 3.5ft 6s 4s 16 18 mph 1014.2mb 37f 36f
10:50am 3.5ft 5s 4s 18 22 mph 1013.5mb 37f 36f
9:50am 3.5ft 4s 4s 16 20 mph 1012.8mb 37f 35f
8:50am 3.5ft 4s 4s 18 22 mph 1012.3mb 37f 35f
7:50am 3.5ft 4s 4s 18 20 mph 1012mb 37f 34f
6:50am 3.5ft 4s  -  22 27 mph 1011.1mb 37f 34f
5:50am 3.5ft 4s 4s 18 22 mph 1010.5mb 37f 34f
4:50am 3.5ft 4s 4s 18 20 mph 1009.8mb 37f 35f
3:50am 3.5ft 4s 4s 20 25 mph 1008.9mb 37f 37f
2:50am 3.5ft 5s 4s 20 25 mph 1008.2mb 37f 37f
1:50am 3.5ft 4s 4s 20 25 mph 1007.8mb 37f 37f
12:50am 3ft 6s 4s 22 25 mph 1007.3mb 37f 38f
Thu 04/27 11:50pm 3ft 6s 4s 18 20 mph 1006.5mb 37f 38f
10:50pm 3.5ft 6s 4s 11 13 mph 1006.1mb 37f 38f
9:50pm 4ft 5s 4s 13 16 mph 1005.7mb 37f 38f
8:50pm 4.5ft 6s 4s 16 20 mph 1005.1mb 37f 38f
7:50pm 4.5ft 6s 4s 18 22 mph 1004mb 37f 37f
6:50pm 4.5ft 6s 4s 16 20 mph 1003mb 37f 36f
5:50pm 4ft 6s 4s 18 20 mph 1002mb 37f 37f
4:50pm 3.5ft 5s 4s 22 27 mph 999.9mb 37f 38f
3:50pm 3.5ft 4s 4s 16 20 mph 998.9mb 37f 38f
2:50pm 3.5ft 5s 4s 13 18 mph 998mb 37f 38f
1:50pm 3ft 4s 4s 20 25 mph 996mb 37f 38f
12:50pm 2ft 4s 3s 25 31 mph 991.9mb 37f 41f
11:50am 1.6ft 4s 4s 16 22 mph 992.1mb 37f 45f
10:50am 1.6ft 4s 3s 7
mph
992.3mb 37f 39f
9:50am 1.6ft 4s 3s 7 9 mph 992.5mb 37f 40f
8:50am 2ft 4s 3s 13 18 mph 992.4mb 37f 38f
7:50am 2ft 4s 4s 11 13 mph 993.2mb 37f 38f
6:50am 1.6ft 3s 3s 16 18 mph 993.2mb 37f 38f
5:50am 1.3ft 3s 3s 13 18 mph 993mb 37f 39f
4:50am 1ft 4s 4s 11 13 mph 994.6mb 37f 39f
3:50am 1ft 5s 4s 7 9 mph 995.5mb 37f 40f
2:50am 1.3ft 5s 4s 4
mph
996.3mb 37f 41f
1:50am 1.3ft 5s 4s 4
mph
997.6mb 37f 40f
12:50am 1.6ft 5s 4s 7
mph
997.3mb 37f 41f
Wed 04/26 11:50pm 1.6ft 5s 4s 9
mph
997.4mb 37f 42f
10:50pm 2ft 5s 4s 7
mph
997.7mb 37f 42f
9:50pm 2ft 5s 4s 9 11 mph 998.7mb 37f 42f
8:50pm 2.5ft 5s 4s 9 13 mph 997.9mb 37f 41f
7:50pm 2.5ft 5s 4s 9 11 mph 997.3mb 37f 42f
6:50pm 2ft 4s 3s 13 16 mph 997.8mb 37f 42f
5:50pm 1.3ft 4s 3s 16 18 mph 997.6mb 37f 41f
4:50pm 1.6ft 4s 3s 9
mph
996.8mb 38f 41f
3:50pm 1.3ft 5s 4s 7
mph
996.8mb 38f 42f
2:50pm 1.6ft 4s 4s 11 13 mph 997mb 38f 47f
1:50pm 1.6ft 3s 3s 2 4 mph 997.4mb 37f 45f
12:50pm 1.6ft 5s 4s 7 9 mph 996.8mb 37f 42f
11:50am 2ft 4s 4s 9
mph
997.8mb 37f 42f
10:50am 2ft 5s 4s 9 11 mph 998.4mb 37f 44f
9:50am 2ft 5s 4s 11
mph
999.3mb 37f 44f